Home > Products > Valid Products > TAF

000
FTUS41 KALY 160500
TAFALB
TAF
KALB 160520Z 1606/1706 16003KT P6SM VCSH OVC100
     FM160800 20003KT P6SM -SHRA OVC060
     FM161500 28007KT P6SM FEW025 SCT050
     FM170000 28003KT P6SM SKC=



000
FTUS41 KALY 160500
TAFGFL
TAF
KGFL 160520Z 1606/1706 08003KT P6SM -SHRA OVC080
      TEMPO 1607/1611 3SM -SHRA BR OVC025
     FM161500 18005KT P6SM FEW025 SCT050
     FM170000 00000KT P6SM SKC
     FM170500 00000KT 2SM BR BKN008=



000
FTUS41 KALY 160500
TAFPOU
TAF
KPOU 160520Z 1606/1706 00000KT P6SM BKN060
     FM161400 28004KT P6SM FEW025 SCT050
     FM170000 00000KT P6SM SKC=



000
FTUS41 KALY 152300
TAFPOU
TAF
KPOU 152327Z 1600/1624 VRB03KT P6SM BKN150 BKN250
     FM160300 00000KT P6SM OVC120
     FM160800 00000KT 5SM -SHRA OVC025
     FM161400 28004KT P6SM FEW025 SCT050=



000
FTUS41 KALY 152300
TAFALB
TAF
KALB 152327Z 1600/1624 13003KT P6SM BKN150 BKN250
     FM160300 18003KT P6SM OVC050
     FM160600 19003KT 5SM -SHRA OVC025
     FM161400 28007KT P6SM FEW025 SCT050=



000
FTUS41 KALY 152300
TAFGFL
TAF
KGFL 152327Z 1600/1624 17005KT P6SM BKN150
     FM160300 VRB03KT P6SM OVC050
     FM160600 00000KT 5SM -SHRA OVC025
      TEMPO 1608/1612 2SM -RA BR OVC015
     FM161500 18005KT P6SM FEW025 SCT050=



000
FTUS41 KALY 151700
TAFGFL
TAF
KGFL 151740Z 1518/1618 VRB03KT P6SM BKN050
     FM160000 17005KT P6SM SCT150 BKN250
     FM160400 VRB03KT P6SM OVC050
     FM160500 00000KT 5SM -SHRA OVC025
      TEMPO 1609/1613 2SM -RA BR OVC015
     FM161600 18004KT P6SM FEW025 SCT040=



000
FTUS41 KALY 151700
TAFALB
TAF
KALB 151740Z 1518/1618 00000KT P6SM FEW040 FEW270
     FM160000 14003KT P6SM SCT150 BKN250
     FM160400 18003KT P6SM OVC050
     FM160600 19003KT 5SM -SHRA OVC025
     FM161300 28007KT P6SM FEW025 SCT040=



000
FTUS41 KALY 151700
TAFPOU
TAF
KPOU 151740Z 1518/1618 VRB03KT P6SM FEW050
     FM152100 VRB03KT P6SM SCT150 SCT250
     FM160100 00000KT P6SM OVC140
     FM160900 00000KT 5SM -SHRA OVC025
     FM161300 25004KT P6SM FEW025 SCT040=



000
FTUS41 KALY 151600 AAA
TAFPOU
TAF AMD
KPOU 151632Z 1517/1612 00000KT P6SM FEW040
     FM152100 VRB03KT P6SM SCT150 SCT250
     FM160400 00000KT P6SM OVC050
     FM160900 00000KT 5SM -SHRA OVC025=



000
FTUS41 KALY 151600 AAB
TAFGFL
TAF AMD
KGFL 151631Z 1517/1612 VRB04KT P6SM SCT050
     FM152100 17005KT P6SM SCT150 BKN250
     FM160300 VRB03KT P6SM OVC050
     FM160500 00000KT 5SM -SHRA OVC025=



000
FTUS41 KALY 151600 AAD
TAFALB
TAF AMD
KALB 151631Z 1517/1612 VRB03KT P6SM FEW030 SCT260
     FM152100 30005KT P6SM SCT150 BKN250
     FM160300 17003KT P6SM OVC050
     FM160600 13003KT 5SM -SHRA OVC025=



000
FTUS41 KALY 151300 AAC
TAFALB
TAF AMD
KALB 151321Z 1513/1612 07003KT P6SM BCFG SCT002 SCT005 BKN250
     FM151400 17004KT P6SM SCT045
     FM152100 30005KT P6SM SCT150 BKN250
     FM160300 17003KT P6SM OVC050
     FM160600 13003KT 5SM -SHRA OVC025=



000
FTUS41 KALY 151200 AAB
TAFALB
TAF AMD
KALB 151255Z 1513/1612 08003KT 2SM BCFG BR BKN002 BKN005 BKN250
     FM151400 17004KT P6SM SCT045
     FM152100 30005KT P6SM SCT150 BKN250
     FM160300 17003KT P6SM OVC050
     FM160600 13003KT 5SM -SHRA OVC025=



000
FTUS41 KALY 151200 AAA
TAFGFL
TAF AMD
KGFL 151249Z 1513/1612 19003KT P6SM FEW002 SCT019
     FM151400 17004KT P6SM SCT045
     FM152100 17005KT P6SM SCT150 BKN250
     FM160300 VRB03KT P6SM OVC050
     FM160500 00000KT 5SM -SHRA OVC025=



000
FTUS41 KALY 151200 AAA
TAFALB
TAF AMD
KALB 151249Z 1513/1612 00000KT 1SM BR BKN002 BKN005
     FM151400 17004KT P6SM SCT045
     FM152100 30005KT P6SM SCT150 BKN250
     FM160300 17003KT P6SM OVC050
     FM160600 13003KT 5SM -SHRA OVC025=



000
FTUS41 KALY 151100
TAFPOU
TAF
KPOU 151132Z 1512/1612 00000KT P6SM SKC
     FM151500 VRB03KT P6SM SCT060
     FM152100 VRB03KT P6SM SCT150 SCT250
     FM160400 00000KT P6SM OVC050
     FM160900 00000KT 5SM -SHRA OVC025=



000
FTUS41 KALY 151100
TAFALB
TAF
KALB 151132Z 1512/1612 00000KT 1/4SM FG VV001
     FM151400 17004KT P6SM SCT045
     FM152100 30005KT P6SM SCT150 BKN250
     FM160300 17003KT P6SM OVC050
     FM160600 13003KT 5SM -SHRA OVC025=



000
FTUS41 KALY 151100
TAFGFL
TAF
KGFL 151132Z 1512/1612 00000KT 1/4SM FG VV002
     FM151400 17004KT P6SM SCT045
     FM152100 17005KT P6SM SCT150 BKN250
     FM160300 VRB03KT P6SM OVC050
     FM160500 00000KT 5SM -SHRA OVC025=



000
FTUS41 KALY 151000 AAC
TAFGFL
TAF AMD
KGFL 151046Z 1511/1606 00000KT P6SM OVC003
     FM151200 VRB03KT P6SM SCT250
     FM152100 17005KT P6SM SCT150 BKN250
     FM160300 VRB03KT P6SM OVC050=



000
FTUS41 KALY 151000 AAB
TAFGFL
TAF AMD
KGFL 151037Z 1511/1606 00000KT 2SM BR BKN003
     FM151200 VRB03KT P6SM SCT250
     FM152100 17005KT P6SM SCT150 BKN250
     FM160300 VRB03KT P6SM OVC050=



000
FTUS41 KALY 151000 AAA
TAFGFL
TAF AMD
KGFL 151033Z 1511/1606 00000KT 1SM BR BKN002
     FM151200 VRB03KT P6SM SCT250
     FM152100 17005KT P6SM SCT150 BKN250
     FM160300 VRB03KT P6SM OVC050=



000
FTUS41 KALY 150500
TAFALB
TAF
KALB 150521Z 1506/1606 00000KT P6SM SCT050
     FM151200 29004KT P6SM SCT250
     FM152100 30005KT P6SM SCT150 BKN250
     FM160300 17003KT P6SM OVC050=



000
FTUS41 KALY 150500
TAFGFL
TAF
KGFL 150521Z 1506/1606 00000KT P6SM OVC035
     FM150800 00000KT P6SM SCT035
      TEMPO 1508/1511 2SM BR BKN002
     FM151200 VRB03KT P6SM SCT250
     FM152100 17005KT P6SM SCT150 BKN250
     FM160300 VRB03KT P6SM OVC050=



000
FTUS41 KALY 150500
TAFPOU
TAF
KPOU 150521Z 1506/1606 00000KT P6SM SKC
     FM151200 VRB03KT P6SM SCT250
     FM152100 VRB03KT P6SM SCT150 SCT250
     FM160400 00000KT P6SM OVC050=



000
FTUS41 KALY 150200 AAA
TAFGFL
TAF AMD
KGFL 150242Z 1503/1524 00000KT P6SM SKC
      TEMPO 1503/1506 3/4SM BR FEW035
     FM150700 00000KT 2SM BR BKN002
     FM151200 VRB03KT P6SM SCT250
     FM152100 17005KT P6SM SCT150 BKN250=



000
FTUS41 KALY 142300
TAFALB
TAF
KALB 142327Z 1500/1524 06004KT P6SM BKN250
     FM150300 00000KT P6SM SKC
     FM151200 29004KT P6SM SCT250
     FM152100 30005KT P6SM SCT150 BKN250=



000
FTUS41 KALY 142300
TAFPOU
TAF
KPOU 142327Z 1500/1524 02004KT P6SM BKN150 BKN250
     FM150300 00000KT P6SM SKC
     FM151200 VRB03KT P6SM SCT250
     FM152100 VRB03KT P6SM SCT150 SCT250=



000
FTUS41 KALY 142300
TAFGFL
TAF
KGFL 142327Z 1500/1524 12003KT P6SM SCT250
     FM150200 00000KT P6SM SKC
     FM150700 00000KT 2SM BR BKN002
     FM151200 VRB03KT P6SM SCT250
     FM152100 17005KT P6SM SCT150 BKN250=



000
FTUS41 KALY 141700
TAFALB
TAF
KALB 141739Z 1418/1518 05009KT P6SM SCT035 SCT250
     FM142300 34004KT P6SM FEW035
     FM150300 00000KT P6SM SKC
     FM151200 30004KT P6SM SCT250=



000
FTUS41 KALY 141700
TAFGFL
TAF
KGFL 141739Z 1418/1518 05009KT P6SM BKN035
     FM142000 09007KT P6SM SCT035
     FM142300 00000KT P6SM SKC
     FM150800 00000KT 5SM BR SCT002
     FM151200 VRB03KT P6SM FEW050 SCT250=



000
FTUS41 KALY 141700
TAFPOU
TAF
KPOU 141739Z 1418/1518 03008KT P6SM SKC
     FM142200 VRB03KT P6SM SKC
     FM150200 00000KT P6SM SKC
     FM151100 VRB03KT P6SM FEW050 SCT250=



000
FTUS41 KALY 141500 AAA
TAFGFL
TAF AMD
KGFL 141532Z 1416/1512 01007KT P6SM OVC030
      TEMPO 1416/1418 SCT030
     FM141800 08007KT P6SM SCT030
     FM142300 VRB03KT P6SM SKC
     FM150800 00000KT 4SM BR SCT003=



000
FTUS41 KALY 141100
TAFPOU
TAF
KPOU 141133Z 1412/1512 VRB03KT P6SM SCT001 SCT035
     FM141300 34005KT P6SM FEW050
     FM142300 VRB03KT P6SM SCT250=



000
FTUS41 KALY 141100
TAFGFL
TAF
KGFL 141133Z 1412/1512 35007KT P6SM SCT040
      TEMPO 1412/1414 BKN040
     FM141600 08007KT P6SM FEW050
     FM142300 VRB03KT P6SM SKC
     FM150800 00000KT 4SM BR SCT003=



000
FTUS41 KALY 141100
TAFALB
TAF
KALB 141133Z 1412/1512 32007KT P6SM BKN035
      TEMPO 1413/1415 SCT035
     FM141600 33008KT P6SM SCT050
     FM142300 32004KT P6SM FEW250=



000
FTUS41 KALY 141000 AAE
TAFPOU
TAF AMD
KPOU 141019Z 1410/1506 VRB03KT 5SM BR SCT002 WS020/31025KT
      TEMPO 1410/1412 1/4SM FG VV001
     FM141300 34005KT P6SM FEW050
     FM142300 VRB03KT P6SM SCT250=



000
FTUS41 KALY 141000 AAA
TAFALB
TAF AMD
KALB 141010Z 1410/1506 32006KT P6SM BKN040
     FM141300 33007KT P6SM SCT050
     FM142300 32004KT P6SM FEW250=



000
FTUS41 KALY 140900 AAB
TAFGFL
TAF AMD
KGFL 140902Z 1409/1506 33006KT P6SM SCT025 BKN040
      TEMPO 1409/1413 BKN025 OVC040
     FM141300 01005KT P6SM SCT040
     FM141600 09007KT P6SM FEW050
     FM142300 VRB03KT P6SM SKC=



000
FTUS41 KALY 140900 AAD
TAFPOU
TAF AMD
KPOU 140901Z 1409/1506 VRB03KT 5SM BR SCT002 WS020/31025KT
      TEMPO 1409/1411 1/4SM FG VV001
     FM141300 34005KT P6SM FEW050
     FM142300 VRB03KT P6SM SCT250=



000
FTUS41 KALY 140800 AAC
TAFPOU
TAF AMD
KPOU 140835Z 1409/1506 VRB03KT 1SM BR BKN002 WS020/31025KT
      TEMPO 1409/1411 1/4SM FG VV001
     FM141300 34005KT P6SM FEW050
     FM142300 VRB03KT P6SM SCT250=



000
FTUS41 KALY 140800 AAA
TAFGFL
TAF AMD
KGFL 140809Z 1408/1506 33006KT P6SM BKN040
     FM141300 01005KT P6SM SCT040
     FM141600 09007KT P6SM FEW050
     FM142300 VRB03KT P6SM SKC=



000
FTUS41 KALY 140600 AAB
TAFPOU
TAF AMD
KPOU 140657Z 1407/1506 VRB03KT 6SM BR SCT050 WS020/31025KT
      TEMPO 1407/1410 1/4SM FG VV001
     FM141300 34005KT P6SM FEW050
     FM142300 VRB03KT P6SM SCT250=



000
FTUS41 KALY 140600 AAA
TAFPOU
TAF AMD
KPOU 140628Z 1406/1506 VRB03KT 6SM BR SCT050 WS020/31025KT
      TEMPO 1406/1410 1/2SM FG VV002
     FM141300 34005KT P6SM FEW050
     FM142300 VRB03KT P6SM SCT250=



000
FTUS41 KALY 140500 CCA
TAFPOU
TAF COR
KPOU 140537Z 1406/1506 VRB03KT 6SM BR SCT050 WS020/31025KT
      TEMPO 1406/1410 1 1/2SM BR BKN005
     FM141300 34005KT P6SM FEW050
     FM142300 VRB03KT P6SM SCT250=



000
FTUS41 KALY 140500
TAFPOU
TAF
KPOU 140522Z 1406/1506 VRB03KT 6SM BR SCT050 WS020/31025KT
      TEMPO 1408/1410 2SM BR BKN005
     FM141300 34005KT P6SM FEW050
     FM142300 VRB03KT P6SM SCT250=



000
FTUS41 KALY 140500
TAFGFL
TAF
KGFL 140522Z 1406/1506 VRB03KT 6SM BR BKN040 WS020/31025KT
      TEMPO 1408/1410 1 1/2SM BR BKN005
     FM141300 01005KT P6SM BKN040
     FM141600 09007KT P6SM FEW050
     FM142300 VRB03KT P6SM SKC=



000
FTUS41 KALY 140500
TAFALB
TAF
KALB 140522Z 1406/1506 31006KT P6SM SCT040 WS020/31025KT
     FM141000 30004KT 6SM BR MIFG FEW002 SCT040
     FM141300 33007KT P6SM SCT050
     FM142300 32004KT P6SM FEW250=



000
FTUS41 KALY 140400 AAA
TAFGFL
TAF AMD
KGFL 140428Z 1404/1424 VRB03KT 6SM BR BKN040 WS020/32030KT
      TEMPO 1404/1408 1 1/2SM BR BKN005
     FM141300 01005KT P6SM BKN040
     FM141600 09007KT P6SM FEW050
     FM142300 VRB03KT P6SM SKC=



000
FTUS41 KALY 140400 AAB
TAFALB
TAF AMD
KALB 140422Z 1404/1424 29007KT P6SM SCT050
     FM141500 32007KT P6SM SCT040
     FM141900 32006KT P6SM SKC=



000
FTUS41 KALY 140300 AAC
TAFPOU
TAF AMD
KPOU 140329Z 1403/1424 VRB03KT 3SM BR BKN005
      TEMPO 1403/1406 1/4SM FG VV001
     FM140600 VRB03KT 6SM BR SCT050
      TEMPO 1406/1410 2SM BR BKN005
     FM141200 35005KT P6SM SKC=



000
FTUS41 KALY 140200 AAB
TAFPOU
TAF AMD
KPOU 140236Z 1403/1424 VRB03KT 6SM BR FEW001 SCT060
      TEMPO 1403/1406 1/2SM FG VV001
     FM140600 VRB03KT 6SM BR SCT050
      TEMPO 1407/1411 2SM BR BKN005
     FM141200 35005KT P6SM SKC=



000
FTUS41 KALY 140100 AAA
TAFALB
TAF AMD
KALB 140131Z 1401/1424 29007KT P6SM VCSH BKN060
     FM141500 32007KT P6SM SCT040
     FM141900 32006KT P6SM SKC=



000
FTUS41 KALY 140000 AAA
TAFPOU
TAF AMD
KPOU 140044Z 1401/1424 30005KT P6SM FEW018 OVC050
     FM140400 32005KT P6SM BKN050
     FM140600 VRB03KT 6SM BR SCT050
      TEMPO 1407/1411 2SM BR BKN005
     FM141200 35005KT P6SM SKC=



000
FTUS41 KALY 132300 RRA
TAFGFL
TAF
KGFL 132349Z 1400/1424 20005KT P6SM VCSH SCT009 OVC040
      TEMPO 1400/1401 27010G16KT 2SM -RA BR BKN009 OVC020
     FM140100 25005KT P6SM OVC040
     FM140600 31004KT 6SM BR BKN040
      TEMPO 1407/1411 2SM BR BKN005
     FM141300 01005KT P6SM BKN040
     FM141600 09006KT P6SM SKC=



000
FTUS41 KALY 132300 RRA
TAFPOU
TAF
KPOU 132349Z 1400/1424 30006KT 6SM BR VCSH SCT007 OVC015
      TEMPO 1400/1401 30010G16KT 2SM -RA BR BKN007 OVC015
     FM140200 32005KT P6SM BKN040
     FM140600 VRB03KT 6SM BR SCT040
      TEMPO 1407/1411 2SM BR BKN005
     FM141200 35005KT P6SM SKC=



000
FTUS41 KALY 132300 RRA
TAFALB
TAF
KALB 132349Z 1400/1424 29010G16KT P6SM VCSH BKN040
     FM140200 31007KT P6SM BKN040
     FM141500 32007KT P6SM SCT040
     FM141900 32006KT P6SM SKC=



000
FTUS41 KALY 132300
TAFALB
TAF
KALB 132336Z 1400/1424 29010G16KT P6SM VCSH BKN040
     FM140200 31007KT P6SM BKN040
     FM141500 32007KT P6SM SCT040
     FM141900 32006KT P6SM SKC=



000
FTUS41 KALY 132300
TAFGFL
TAF
KGFL 132336Z 1400/1424 20005KT P6SM VCSH SCT009 OVC040
      TEMPO 1400/1401 27010G16KT 2SM -RA BR BKN009 OVC020
     FM140100 25005KT P6SM OVC040
     FM140600 31004KT 6SM BR BKN040
      TEMPO 1407/1411 2SM BR BKN005
     FM141300 01005KT P6SM BKN040
     FM141600 09006KT P6SM SKC=



000
FTUS41 KALY 132300
TAFPOU
TAF
KPOU 132336Z 1400/1424 VRB04KT 5SM BR SCT007 OVC015
      TEMPO 1400/1402 30012G20KT 2SM -RA BR BKN007 OVC015
     FM140200 32005KT P6SM BKN040
     FM140600 VRB03KT 6SM BR SCT040
      TEMPO 1407/1411 2SM BR BKN005
     FM141200 35005KT P6SM SKC=



000
FTUS41 KALY 132200 AAD
TAFALB
TAF AMD
KALB 132247Z 1323/1418 27010KT 2SM -RA BR BKN007 OVC025
     FM132300 29008KT 6SM BR VCSH SCT008 OVC015
      TEMPO 1323/1324 27018G32KT 4SM -SHRA BR OVC015
     FM140300 32007KT P6SM BKN035
     FM141300 32007KT P6SM SCT040=



000
FTUS41 KALY 132200 AAC
TAFALB
TAF AMD
KALB 132234Z 1323/1418 27010KT 2SM -RA BR BKN007 OVC025
     FM132300 29008KT 6SM BR VCSH SCT008 OVC015
     FM140300 32007KT P6SM BKN035
     FM141300 32007KT P6SM SCT040=



000
FTUS41 KALY 132000 AAA
TAFGFL
TAF AMD
KGFL 132059Z 1321/1418 36005KT 6SM -RA BR SCT005 OVC030
      TEMPO 1321/1323 4SM -RA BR BKN005 OVC030
     FM132300 31004KT 5SM BR VCSH BKN008 OVC012
     FM140200 24004KT 4SM BR SCT008 OVC020
     FM140500 VRB03KT 1 1/2SM BR SCT020
     FM141200 02005KT P6SM SKC=



000
FTUS41 KALY 132000 AAB
TAFALB
TAF AMD
KALB 132002Z 1320/1418 VRB05KT 6SM -RA BR SCT025 OVC040
      TEMPO 1320/1323 2SM -RA BR SCT012 OVC025
     FM132300 31005KT 3SM BR VCSH SCT008 OVC015
     FM140300 32007KT 5SM BR BKN015
     FM140700 31005KT P6SM SCT015
     FM141300 32008KT P6SM SKC=



000
FTUS41 KALY 132000 AAB
TAFPOU
TAF AMD
KPOU 132001Z 1320/1418 12006KT 6SM -RA BR OVC035
      TEMPO 1320/1322 3SM -RA BR SCT006 OVC015
     FM132200 VRB03KT 3SM BR VCSH BKN006 OVC012
     FM140200 00000KT 1 1/2SM BR SCT006 SCT250
     FM140600 00000KT 3/4SM BR VV002
     FM141200 35005KT P6SM SKC=



000
FTUS41 KALY 131800 AAA
TAFPOU
TAF AMD
KPOU 131829Z 1318/1418 12006KT 6SM -RA BR OVC025
      TEMPO 1318/1322 2SM -RA BR SCT006 OVC015
     FM132200 VRB03KT 3SM BR VCSH BKN006 OVC012
     FM140200 00000KT 1 1/2SM BR SCT006 SCT250
     FM140600 00000KT 3/4SM BR VV002
     FM141200 35005KT P6SM SKC=



000
FTUS41 KALY 131800 AAA
TAFALB
TAF AMD
KALB 131828Z 1318/1418 VRB05KT 6SM -RA BR SCT025 OVC040
      TEMPO 1318/1320 2SM -RA BR SCT012 OVC025
     FM132000 14007KT 4SM -RA BR SCT015 OVC025
     FM132300 31005KT 3SM BR VCSH SCT008 OVC015
     FM140300 32007KT 5SM BR BKN015
     FM140700 31005KT P6SM SCT015
     FM141300 32008KT P6SM SKC=



000
FTUS41 KALY 131700 RRA
TAFALB
TAF
KALB 131750Z 1318/1418 VRB05KT 6SM -RA BR SCT025 OVC040
      TEMPO 1318/1320 4SM -RA BR SCT012 OVC025
     FM132000 14007KT 4SM -RA BR SCT015 OVC025
     FM132300 31005KT 3SM BR VCSH SCT008 OVC015
     FM140300 32007KT 5SM BR BKN015
     FM140700 31005KT P6SM SCT015
     FM141300 32008KT P6SM SKC=



000
FTUS41 KALY 131700 RRA
TAFGFL
TAF
KGFL 131750Z 1318/1418 36005KT 6SM -RA BR OVC040
      TEMPO 1319/1323 3SM -RA BR SCT012 OVC025
     FM132300 31004KT 5SM BR VCSH BKN008 OVC012
     FM140200 24004KT 4SM BR SCT008 OVC020
     FM140500 VRB03KT 1 1/2SM BR SCT020
     FM141200 02005KT P6SM SKC=



000
FTUS41 KALY 131700 RRA
TAFPOU
TAF
KPOU 131750Z 1318/1418 12006KT 6SM -RA BR OVC025
      TEMPO 1319/1322 3SM -RA BR SCT006 OVC015
     FM132200 VRB03KT 3SM BR VCSH BKN006 OVC012
     FM140200 00000KT 1 1/2SM BR SCT006 SCT250
     FM140600 00000KT 3/4SM BR VV002
     FM141200 35005KT P6SM SKC=



000
FTUS41 KALY 131500 AAA
TAFPOU
TAF AMD
KPOU 131531Z 1316/1412 02004KT P6SM SCT025 OVC040
      TEMPO 1316/1318 BKN025
     FM131800 13006KT 5SM -SHRA BR BKN025 OVC035
     FM132200 VRB03KT 3SM BR VCSH FEW008 OVC015
     FM140200 00000KT 1 1/2SM BR BKN005=



000
FTUS41 KALY 131100
TAFGFL
TAF
KGFL 131137Z 1312/1412 VRB03KT P6SM BKN250
     FM131400 12004KT P6SM BKN035 OVC150
     FM131600 15006KT 6SM -SHRA BR SCT040 OVC060
     FM131800 17006KT 3SM -RA BR SCT008 OVC015
     FM132300 VRB03KT 4SM BR VCSH BKN008 OVC012
     FM140200 24003KT 2SM BR BKN005 OVC009=



000
FTUS41 KALY 131100
TAFALB
TAF
KALB 131137Z 1312/1412 05004KT P6SM SCT035 BKN150
     FM131500 13008KT P6SM VCSH BKN040 OVC080
     FM131700 16010KT 6SM -SHRA BR SCT040 OVC060
     FM131900 14007KT 4SM -RA BR SCT015 OVC025
     FM132300 15005KT 3SM BR VCSH SCT008 OVC012
     FM140200 31006KT 5SM BR SCT006 OVC010=



000
FTUS41 KALY 131100
TAFPOU
TAF
KPOU 131137Z 1312/1412 02004KT P6SM FEW025 OVC040
     FM131400 09006KT P6SM VCSH BKN035 OVC100
     FM131600 13006KT 5SM -SHRA BR BKN025 OVC035
     FM132200 VRB03KT 3SM BR VCSH FEW008 OVC015
     FM140200 00000KT 1 1/2SM BR BKN005=



000
FTUS41 KALY 130800 AAA
TAFPOU
TAF AMD
KPOU 130812Z 1308/1406 02004KT P6SM BKN035
      TEMPO 1308/1312 BKN030
     FM131400 09006KT P6SM SCT035 OVC140
     FM131900 13006KT 5SM -SHRA BR BKN025 OVC035
     FM132300 VRB03KT 3SM BR VCSH FEW008 OVC015
     FM140200 00000KT 1 1/2SM BR BKN005=



    US Dept of Commerce
    National Oceanic and Atmospheric Administration
    National Weather Service
    1325 East West Highway
    Silver Spring, MD 20910
    Page Author: NWS Internet Services Team
Disclaimer
Information Quality
Credits
Glossary
Privacy Policy
Freedom of Information Act (FOIA)
About Us
Career Opportunities